LRBS/BBU METAR and TAF weather

Enter ICAO airport designator
Station Type Date Time Source
LRBS METAR 2019/08/17 10:30 UTC NOAA

LRBS 171030Z 27004KT 160V320 CAVOK 27/11 Q1016


Station Type Date Time Source
LRBS Decoded METAR 2019/08/17 10:30 UTC NOAA

Station name not available
Aug 17, 2019 - 06:30 AM EDT / 2019.08.17 1030 UTC
Wind: from the W (270 degrees) at 5 MPH (4 KT) (direction variable):0
Visibility: greater than 7 mile(s):0
Temperature: 80 F (27 C)
Dew Point: 51 F (11 C)
Relative Humidity: 36%
Pressure (altimeter): 30.00 in. Hg (1016 hPa)
ob: LRBS 171030Z 27004KT 160V320 CAVOK 27/11 Q1016
cycle: 10

Station Type Date Time Source
LRBS TAF 2019/08/17 06:33 UTC NOAA

TAF TAF LRBS 170500Z 1706/1806 VRB04KT CAVOK
TEMPO 1711/1716 SCT045CB PROB30
TEMPO 1712/1715 5000 -SHRA PROB30
TEMPO 1802/1805 5000 BR

Example: see airport list